EmailTwitter


Observations de surface / Québec / LFKB

Régions: Québec | Canada | États-Unis | Europe | France | UK | Elsewhere
Station
Affichage
Infos & localisation pour LFKB | Aide pour décoder les METARs

Observations prises le 2017-05-26 à 01H30 UTC à BASTIA/PORETTA, FR (LFKB)

Température: 15.0 Celsius

Point de rosée: 13.0 Celsius

Humidité relative: 88%

Vents: Sud-ouest à 6 km/h ou 3 noeuds.

Pression au niveau moyen de la mer: 101.70 kilopascals.

Observation METAR:

LFKB 260130Z 24003KT CAVOK 15/13 Q1017 NOSIG=